sensor_id;sensor_type;location;lat;lon;timestamp;P1;durP1;ratioP1;P2;durP2;ratioP2
25721;SDS011;13578;53.450;15.496;2022-07-30T00:01:36;2.67;;;0.60;;
25721;SDS011;13578;53.450;15.496;2022-07-30T00:04:37;2.83;;;0.63;;
25721;SDS011;13578;53.450;15.496;2022-07-30T00:07:37;5.95;;;1.30;;
25721;SDS011;13578;53.450;15.496;2022-07-30T00:10:38;1.25;;;0.50;;
25721;SDS011;13578;53.450;15.496;2022-07-30T00:13:40;3.05;;;0.50;;
25721;SDS011;13578;53.450;15.496;2022-07-30T00:16:40;3.13;;;0.57;;
25721;SDS011;13578;53.450;15.496;2022-07-30T00:19:41;7.40;;;0.70;;
25721;SDS011;13578;53.450;15.496;2022-07-30T00:22:42;2.17;;;0.85;;
25721;SDS011;13578;53.450;15.496;2022-07-30T00:25:42;4.32;;;0.60;;
25721;SDS011;13578;53.450;15.496;2022-07-30T00:28:43;5.10;;;0.63;;
25721;SDS011;13578;53.450;15.496;2022-07-30T00:31:44;5.22;;;0.75;;
25721;SDS011;13578;53.450;15.496;2022-07-30T00:34:45;1.92;;;0.73;;
25721;SDS011;13578;53.450;15.496;2022-07-30T00:37:45;3.90;;;0.60;;
25721;SDS011;13578;53.450;15.496;2022-07-30T00:40:46;2.00;;;0.60;;
25721;SDS011;13578;53.450;15.496;2022-07-30T00:43:47;2.10;;;0.60;;
25721;SDS011;13578;53.450;15.496;2022-07-30T00:46:48;7.20;;;0.60;;
25721;SDS011;13578;53.450;15.496;2022-07-30T00:49:50;2.95;;;0.75;;
25721;SDS011;13578;53.450;15.496;2022-07-30T00:52:50;1.70;;;0.65;;
25721;SDS011;13578;53.450;15.496;2022-07-30T00:55:51;1.45;;;0.70;;
25721;SDS011;13578;53.450;15.496;2022-07-30T00:58:51;3.85;;;0.60;;
25721;SDS011;13578;53.450;15.496;2022-07-30T01:01:52;4.82;;;0.75;;
25721;SDS011;13578;53.450;15.496;2022-07-30T01:04:53;4.57;;;0.82;;
25721;SDS011;13578;53.450;15.496;2022-07-30T01:07:54;2.55;;;0.90;;
25721;SDS011;13578;53.450;15.496;2022-07-30T01:10:55;4.05;;;0.70;;
25721;SDS011;13578;53.450;15.496;2022-07-30T01:13:55;6.13;;;0.50;;
25721;SDS011;13578;53.450;15.496;2022-07-30T01:16:56;4.43;;;0.70;;
25721;SDS011;13578;53.450;15.496;2022-07-30T01:19:59;1.67;;;0.60;;
25721;SDS011;13578;53.450;15.496;2022-07-30T01:23:25;3.72;;;0.63;;
25721;SDS011;13578;53.450;15.496;2022-07-30T01:26:34;2.53;;;0.60;;
25721;SDS011;13578;53.450;15.496;2022-07-30T01:29:35;10.30;;;1.05;;
25721;SDS011;13578;53.450;15.496;2022-07-30T01:32:40;2.35;;;0.52;;
25721;SDS011;13578;53.450;15.496;2022-07-30T01:35:44;14.43;;;0.93;;
25721;SDS011;13578;53.450;15.496;2022-07-30T01:38:47;4.10;;;1.00;;
25721;SDS011;13578;53.450;15.496;2022-07-30T01:41:50;4.03;;;0.55;;
25721;SDS011;13578;53.450;15.496;2022-07-30T01:44:53;5.22;;;0.88;;
25721;SDS011;13578;53.450;15.496;2022-07-30T01:47:57;15.52;;;1.05;;
25721;SDS011;13578;53.450;15.496;2022-07-30T01:50:59;1.65;;;0.60;;
25721;SDS011;13578;53.450;15.496;2022-07-30T01:54:06;5.55;;;0.60;;
25721;SDS011;13578;53.450;15.496;2022-07-30T01:57:09;2.90;;;0.90;;
25721;SDS011;13578;53.450;15.496;2022-07-30T02:00:12;3.42;;;0.70;;
25721;SDS011;13578;53.450;15.496;2022-07-30T02:03:13;2.50;;;0.90;;
25721;SDS011;13578;53.450;15.496;2022-07-30T02:06:19;1.83;;;0.60;;
25721;SDS011;13578;53.450;15.496;2022-07-30T02:09:23;3.72;;;0.93;;
25721;SDS011;13578;53.450;15.496;2022-07-30T02:12:35;2.63;;;0.70;;
25721;SDS011;13578;53.450;15.496;2022-07-30T02:15:43;4.78;;;0.80;;
25721;SDS011;13578;53.450;15.496;2022-07-30T02:18:51;1.23;;;0.55;;
25721;SDS011;13578;53.450;15.496;2022-07-30T02:22:03;3.22;;;0.68;;
25721;SDS011;13578;53.450;15.496;2022-07-30T02:25:07;0.88;;;0.47;;
25721;SDS011;13578;53.450;15.496;2022-07-30T02:28:10;2.78;;;0.70;;
25721;SDS011;13578;53.450;15.496;2022-07-30T02:31:13;2.72;;;0.77;;
25721;SDS011;13578;53.450;15.496;2022-07-30T02:34:18;3.33;;;0.88;;
25721;SDS011;13578;53.450;15.496;2022-07-30T02:37:22;3.60;;;1.00;;
25721;SDS011;13578;53.450;15.496;2022-07-30T02:40:25;2.13;;;0.90;;
25721;SDS011;13578;53.450;15.496;2022-07-30T02:43:26;1.58;;;0.75;;
25721;SDS011;13578;53.450;15.496;2022-07-30T02:46:30;2.58;;;1.00;;
25721;SDS011;13578;53.450;15.496;2022-07-30T02:49:32;5.35;;;0.95;;
25721;SDS011;13578;53.450;15.496;2022-07-30T02:52:35;1.88;;;0.77;;
25721;SDS011;13578;53.450;15.496;2022-07-30T02:55:38;2.30;;;0.77;;
25721;SDS011;13578;53.450;15.496;2022-07-30T02:58:44;5.82;;;0.70;;
25721;SDS011;13578;53.450;15.496;2022-07-30T03:01:47;1.42;;;0.80;;
25721;SDS011;13578;53.450;15.496;2022-07-30T03:04:49;7.72;;;0.85;;
25721;SDS011;13578;53.450;15.496;2022-07-30T03:07:52;3.17;;;1.05;;
25721;SDS011;13578;53.450;15.496;2022-07-30T03:10:54;5.97;;;1.48;;
25721;SDS011;13578;53.450;15.496;2022-07-30T03:13:56;3.75;;;0.68;;
25721;SDS011;13578;53.450;15.496;2022-07-30T03:16:57;3.88;;;0.70;;
25721;SDS011;13578;53.450;15.496;2022-07-30T03:20:01;2.20;;;0.73;;
25721;SDS011;13578;53.450;15.496;2022-07-30T03:23:03;7.57;;;1.38;;
25721;SDS011;13578;53.450;15.496;2022-07-30T03:26:06;2.55;;;0.85;;
25721;SDS011;13578;53.450;15.496;2022-07-30T03:29:08;2.75;;;0.98;;
25721;SDS011;13578;53.450;15.496;2022-07-30T03:32:11;1.58;;;0.70;;
25721;SDS011;13578;53.450;15.496;2022-07-30T03:35:13;2.45;;;0.80;;
25721;SDS011;13578;53.450;15.496;2022-07-30T03:38:15;1.95;;;0.65;;
25721;SDS011;13578;53.450;15.496;2022-07-30T03:41:17;4.28;;;1.13;;
25721;SDS011;13578;53.450;15.496;2022-07-30T03:44:19;5.80;;;0.93;;
25721;SDS011;13578;53.450;15.496;2022-07-30T03:47:21;2.72;;;1.05;;
25721;SDS011;13578;53.450;15.496;2022-07-30T03:50:23;3.10;;;1.25;;
25721;SDS011;13578;53.450;15.496;2022-07-30T03:53:24;10.45;;;1.73;;
25721;SDS011;13578;53.450;15.496;2022-07-30T03:56:26;4.63;;;0.95;;
25721;SDS011;13578;53.450;15.496;2022-07-30T03:59:27;4.55;;;0.82;;
25721;SDS011;13578;53.450;15.496;2022-07-30T04:02:28;5.00;;;1.00;;
25721;SDS011;13578;53.450;15.496;2022-07-30T04:05:29;4.00;;;1.00;;
25721;SDS011;13578;53.450;15.496;2022-07-30T04:08:30;1.25;;;0.57;;
25721;SDS011;13578;53.450;15.496;2022-07-30T04:11:31;4.30;;;0.88;;
25721;SDS011;13578;53.450;15.496;2022-07-30T04:14:41;1.70;;;0.68;;
25721;SDS011;13578;53.450;15.496;2022-07-30T04:17:45;2.05;;;0.95;;
25721;SDS011;13578;53.450;15.496;2022-07-30T04:20:50;2.10;;;0.82;;
25721;SDS011;13578;53.450;15.496;2022-07-30T04:23:53;2.65;;;0.80;;
25721;SDS011;13578;53.450;15.496;2022-07-30T04:26:55;7.43;;;0.70;;
25721;SDS011;13578;53.450;15.496;2022-07-30T04:29:58;2.30;;;0.70;;
25721;SDS011;13578;53.450;15.496;2022-07-30T04:32:59;2.00;;;0.65;;
25721;SDS011;13578;53.450;15.496;2022-07-30T04:36:04;3.35;;;0.95;;
25721;SDS011;13578;53.450;15.496;2022-07-30T04:39:08;4.22;;;0.77;;
25721;SDS011;13578;53.450;15.496;2022-07-30T04:42:10;5.45;;;0.65;;
25721;SDS011;13578;53.450;15.496;2022-07-30T04:45:11;5.07;;;0.98;;
25721;SDS011;13578;53.450;15.496;2022-07-30T04:48:12;2.45;;;0.90;;
25721;SDS011;13578;53.450;15.496;2022-07-30T04:51:17;5.00;;;0.90;;
25721;SDS011;13578;53.450;15.496;2022-07-30T04:54:25;2.00;;;0.80;;
25721;SDS011;13578;53.450;15.496;2022-07-30T04:57:27;3.55;;;0.80;;
25721;SDS011;13578;53.450;15.496;2022-07-30T05:00:31;2.63;;;1.00;;
25721;SDS011;13578;53.450;15.496;2022-07-30T05:03:33;8.30;;;1.02;;
25721;SDS011;13578;53.450;15.496;2022-07-30T05:06:35;2.67;;;1.10;;
25721;SDS011;13578;53.450;15.496;2022-07-30T05:09:36;4.22;;;1.05;;
25721;SDS011;13578;53.450;15.496;2022-07-30T05:12:38;2.90;;;0.73;;
25721;SDS011;13578;53.450;15.496;2022-07-30T05:15:39;3.03;;;0.90;;
25721;SDS011;13578;53.450;15.496;2022-07-30T05:18:40;3.28;;;0.85;;
25721;SDS011;13578;53.450;15.496;2022-07-30T05:21:41;2.85;;;1.13;;
25721;SDS011;13578;53.450;15.496;2022-07-30T05:24:41;4.35;;;0.90;;
25721;SDS011;13578;53.450;15.496;2022-07-30T05:27:42;5.15;;;0.85;;
25721;SDS011;13578;53.450;15.496;2022-07-30T05:30:42;3.28;;;1.10;;
25721;SDS011;13578;53.450;15.496;2022-07-30T05:33:43;3.83;;;0.80;;
25721;SDS011;13578;53.450;15.496;2022-07-30T05:36:44;1.02;;;0.70;;
25721;SDS011;13578;53.450;15.496;2022-07-30T05:39:45;2.78;;;0.77;;
25721;SDS011;13578;53.450;15.496;2022-07-30T05:42:45;6.10;;;0.90;;
25721;SDS011;13578;53.450;15.496;2022-07-30T05:45:46;2.75;;;0.85;;
25721;SDS011;13578;53.450;15.496;2022-07-30T05:48:47;5.93;;;1.02;;
25721;SDS011;13578;53.450;15.496;2022-07-30T05:51:48;3.08;;;0.90;;
25721;SDS011;13578;53.450;15.496;2022-07-30T05:54:48;3.45;;;0.70;;
25721;SDS011;13578;53.450;15.496;2022-07-30T05:57:49;4.25;;;0.82;;
25721;SDS011;13578;53.450;15.496;2022-07-30T06:00:49;2.05;;;0.55;;
25721;SDS011;13578;53.450;15.496;2022-07-30T06:03:50;2.72;;;1.00;;
25721;SDS011;13578;53.450;15.496;2022-07-30T06:06:51;3.03;;;0.80;;
25721;SDS011;13578;53.450;15.496;2022-07-30T06:09:51;2.92;;;0.63;;
25721;SDS011;13578;53.450;15.496;2022-07-30T06:12:52;2.15;;;0.75;;
25721;SDS011;13578;53.450;15.496;2022-07-30T06:15:53;3.60;;;1.20;;
25721;SDS011;13578;53.450;15.496;2022-07-30T06:18:53;15.73;;;1.13;;
25721;SDS011;13578;53.450;15.496;2022-07-30T06:21:54;3.45;;;0.98;;
25721;SDS011;13578;53.450;15.496;2022-07-30T06:24:55;7.70;;;1.20;;
25721;SDS011;13578;53.450;15.496;2022-07-30T06:27:55;3.30;;;0.80;;
25721;SDS011;13578;53.450;15.496;2022-07-30T06:30:56;2.05;;;0.70;;
25721;SDS011;13578;53.450;15.496;2022-07-30T06:33:57;2.35;;;1.05;;
25721;SDS011;13578;53.450;15.496;2022-07-30T06:36:57;1.42;;;0.50;;
25721;SDS011;13578;53.450;15.496;2022-07-30T06:39:58;2.38;;;0.77;;
25721;SDS011;13578;53.450;15.496;2022-07-30T06:43:18;9.52;;;1.05;;
25721;SDS011;13578;53.450;15.496;2022-07-30T06:46:20;3.40;;;0.73;;
25721;SDS011;13578;53.450;15.496;2022-07-30T06:49:20;3.05;;;0.88;;
25721;SDS011;13578;53.450;15.496;2022-07-30T06:52:22;4.47;;;0.88;;
25721;SDS011;13578;53.450;15.496;2022-07-30T06:55:24;2.70;;;0.82;;
25721;SDS011;13578;53.450;15.496;2022-07-30T06:58:25;3.97;;;0.88;;
25721;SDS011;13578;53.450;15.496;2022-07-30T07:01:25;3.78;;;1.05;;
25721;SDS011;13578;53.450;15.496;2022-07-30T07:04:26;2.30;;;0.70;;
25721;SDS011;13578;53.450;15.496;2022-07-30T07:07:28;2.08;;;0.73;;
25721;SDS011;13578;53.450;15.496;2022-07-30T07:10:28;2.80;;;0.98;;
25721;SDS011;13578;53.450;15.496;2022-07-30T07:13:29;2.72;;;0.70;;
25721;SDS011;13578;53.450;15.496;2022-07-30T07:16:29;2.40;;;0.77;;
25721;SDS011;13578;53.450;15.496;2022-07-30T07:19:30;3.08;;;0.90;;
25721;SDS011;13578;53.450;15.496;2022-07-30T07:22:31;2.33;;;0.80;;
25721;SDS011;13578;53.450;15.496;2022-07-30T07:25:31;4.80;;;0.70;;
25721;SDS011;13578;53.450;15.496;2022-07-30T07:28:33;3.22;;;0.70;;
25721;SDS011;13578;53.450;15.496;2022-07-30T07:31:34;4.72;;;0.60;;
25721;SDS011;13578;53.450;15.496;2022-07-30T07:34:35;4.10;;;0.50;;
25721;SDS011;13578;53.450;15.496;2022-07-30T07:37:35;1.75;;;0.60;;
25721;SDS011;13578;53.450;15.496;2022-07-30T07:40:36;2.03;;;0.43;;
25721;SDS011;13578;53.450;15.496;2022-07-30T07:43:37;3.25;;;1.23;;
25721;SDS011;13578;53.450;15.496;2022-07-30T07:46:39;2.63;;;0.70;;
25721;SDS011;13578;53.450;15.496;2022-07-30T07:49:40;3.10;;;1.15;;
25721;SDS011;13578;53.450;15.496;2022-07-30T07:52:40;8.45;;;1.00;;
25721;SDS011;13578;53.450;15.496;2022-07-30T07:55:41;7.82;;;0.70;;
25721;SDS011;13578;53.450;15.496;2022-07-30T07:58:42;5.10;;;0.60;;
25721;SDS011;13578;53.450;15.496;2022-07-30T08:01:42;5.32;;;0.50;;
25721;SDS011;13578;53.450;15.496;2022-07-30T08:04:45;6.03;;;0.60;;
25721;SDS011;13578;53.450;15.496;2022-07-30T08:07:46;2.13;;;0.50;;
25721;SDS011;13578;53.450;15.496;2022-07-30T08:10:46;5.88;;;0.77;;
25721;SDS011;13578;53.450;15.496;2022-07-30T08:13:47;6.65;;;0.93;;
25721;SDS011;13578;53.450;15.496;2022-07-30T08:16:48;4.75;;;0.75;;
25721;SDS011;13578;53.450;15.496;2022-07-30T08:19:49;3.13;;;0.50;;
25721;SDS011;13578;53.450;15.496;2022-07-30T08:22:50;1.95;;;0.40;;
25721;SDS011;13578;53.450;15.496;2022-07-30T08:25:50;2.20;;;0.57;;
25721;SDS011;13578;53.450;15.496;2022-07-30T08:28:51;1.73;;;0.40;;
25721;SDS011;13578;53.450;15.496;2022-07-30T08:31:52;6.65;;;1.25;;
25721;SDS011;13578;53.450;15.496;2022-07-30T08:34:52;4.13;;;0.68;;
25721;SDS011;13578;53.450;15.496;2022-07-30T08:37:53;4.35;;;0.52;;
25721;SDS011;13578;53.450;15.496;2022-07-30T08:40:54;4.30;;;0.50;;
25721;SDS011;13578;53.450;15.496;2022-07-30T08:43:55;2.72;;;0.40;;
25721;SDS011;13578;53.450;15.496;2022-07-30T08:47:00;4.75;;;0.73;;
25721;SDS011;13578;53.450;15.496;2022-07-30T08:50:02;1.73;;;0.43;;
25721;SDS011;13578;53.450;15.496;2022-07-30T08:53:05;2.50;;;0.52;;
25721;SDS011;13578;53.450;15.496;2022-07-30T08:56:06;2.03;;;0.50;;
25721;SDS011;13578;53.450;15.496;2022-07-30T08:59:07;4.28;;;0.60;;
25721;SDS011;13578;53.450;15.496;2022-07-30T09:02:08;0.73;;;0.30;;
25721;SDS011;13578;53.450;15.496;2022-07-30T09:05:09;4.28;;;0.55;;
25721;SDS011;13578;53.450;15.496;2022-07-30T09:08:10;3.92;;;0.30;;
25721;SDS011;13578;53.450;15.496;2022-07-30T09:11:11;4.40;;;0.50;;
25721;SDS011;13578;53.450;15.496;2022-07-30T09:14:13;4.70;;;0.60;;
25721;SDS011;13578;53.450;15.496;2022-07-30T09:17:14;2.70;;;0.65;;
25721;SDS011;13578;53.450;15.496;2022-07-30T09:20:15;2.35;;;0.70;;
25721;SDS011;13578;53.450;15.496;2022-07-30T09:23:15;1.60;;;0.30;;
25721;SDS011;13578;53.450;15.496;2022-07-30T09:26:16;2.85;;;0.35;;
25721;SDS011;13578;53.450;15.496;2022-07-30T09:29:18;1.88;;;0.32;;
25721;SDS011;13578;53.450;15.496;2022-07-30T09:32:23;3.30;;;0.47;;
25721;SDS011;13578;53.450;15.496;2022-07-30T09:35:23;3.55;;;0.50;;
25721;SDS011;13578;53.450;15.496;2022-07-30T09:38:24;2.22;;;0.40;;
25721;SDS011;13578;53.450;15.496;2022-07-30T09:41:32;5.78;;;0.30;;
25721;SDS011;13578;53.450;15.496;2022-07-30T09:44:36;1.90;;;0.38;;
25721;SDS011;13578;53.450;15.496;2022-07-30T09:47:38;3.55;;;0.52;;
25721;SDS011;13578;53.450;15.496;2022-07-30T09:50:52;1.42;;;0.20;;
25721;SDS011;13578;53.450;15.496;2022-07-30T09:53:54;3.67;;;0.30;;
25721;SDS011;13578;53.450;15.496;2022-07-30T09:57:07;1.38;;;0.40;;
25721;SDS011;13578;53.450;15.496;2022-07-30T10:00:18;2.45;;;0.40;;
25721;SDS011;13578;53.450;15.496;2022-07-30T10:03:21;1.70;;;0.17;;
25721;SDS011;13578;53.450;15.496;2022-07-30T10:06:32;2.42;;;0.32;;
25721;SDS011;13578;53.450;15.496;2022-07-30T10:09:34;5.32;;;0.45;;
25721;SDS011;13578;53.450;15.496;2022-07-30T10:12:35;5.45;;;0.45;;
25721;SDS011;13578;53.450;15.496;2022-07-30T10:15:37;7.45;;;0.50;;
25721;SDS011;13578;53.450;15.496;2022-07-30T10:18:37;1.95;;;0.65;;
25721;SDS011;13578;53.450;15.496;2022-07-30T10:21:42;4.43;;;0.63;;
25721;SDS011;13578;53.450;15.496;2022-07-30T10:24:43;3.17;;;0.45;;
25721;SDS011;13578;53.450;15.496;2022-07-30T10:27:45;2.13;;;0.40;;
25721;SDS011;13578;53.450;15.496;2022-07-30T10:30:51;4.20;;;0.50;;
25721;SDS011;13578;53.450;15.496;2022-07-30T10:33:53;4.97;;;0.60;;
25721;SDS011;13578;53.450;15.496;2022-07-30T10:36:54;2.80;;;0.50;;
25721;SDS011;13578;53.450;15.496;2022-07-30T10:43:39;5.57;;;0.38;;
25721;SDS011;13578;53.450;15.496;2022-07-30T10:50:19;1.35;;;0.28;;
25721;SDS011;13578;53.450;15.496;2022-07-30T10:56:33;2.47;;;0.28;;
25721;SDS011;13578;53.450;15.496;2022-07-30T11:15:58;1.00;;;0.20;;
25721;SDS011;13578;53.450;15.496;2022-07-30T11:19:03;3.33;;;0.32;;
25721;SDS011;13578;53.450;15.496;2022-07-30T11:25:38;2.33;;;0.52;;
25721;SDS011;13578;53.450;15.496;2022-07-30T11:28:40;1.45;;;0.30;;
25721;SDS011;13578;53.450;15.496;2022-07-30T11:31:43;3.78;;;0.55;;
25721;SDS011;13578;53.450;15.496;2022-07-30T11:34:43;1.90;;;0.45;;
25721;SDS011;13578;53.450;15.496;2022-07-30T11:47:26;7.53;;;0.95;;
25721;SDS011;13578;53.450;15.496;2022-07-30T11:50:31;2.55;;;0.50;;
25721;SDS011;13578;53.450;15.496;2022-07-30T11:53:34;2.70;;;0.50;;
25721;SDS011;13578;53.450;15.496;2022-07-30T11:56:35;1.55;;;0.30;;
25721;SDS011;13578;53.450;15.496;2022-07-30T11:59:57;5.20;;;0.50;;
25721;SDS011;13578;53.450;15.496;2022-07-30T12:02:57;2.15;;;0.22;;
25721;SDS011;13578;53.450;15.496;2022-07-30T12:06:05;1.67;;;0.25;;
25721;SDS011;13578;53.450;15.496;2022-07-30T12:09:08;1.20;;;0.25;;
25721;SDS011;13578;53.450;15.496;2022-07-30T12:12:22;3.38;;;0.40;;
25721;SDS011;13578;53.450;15.496;2022-07-30T12:15:30;1.25;;;0.20;;
25721;SDS011;13578;53.450;15.496;2022-07-30T12:18:32;9.95;;;0.47;;
25721;SDS011;13578;53.450;15.496;2022-07-30T12:21:33;4.22;;;0.80;;
25721;SDS011;13578;53.450;15.496;2022-07-30T12:24:34;5.70;;;0.43;;
25721;SDS011;13578;53.450;15.496;2022-07-30T12:27:35;3.03;;;0.40;;
25721;SDS011;13578;53.450;15.496;2022-07-30T12:30:37;2.72;;;0.32;;
25721;SDS011;13578;53.450;15.496;2022-07-30T12:33:38;2.10;;;0.30;;
25721;SDS011;13578;53.450;15.496;2022-07-30T12:36:39;3.70;;;0.30;;
25721;SDS011;13578;53.450;15.496;2022-07-30T12:39:40;2.80;;;0.30;;
25721;SDS011;13578;53.450;15.496;2022-07-30T12:42:50;1.20;;;0.20;;
25721;SDS011;13578;53.450;15.496;2022-07-30T12:45:56;5.07;;;0.45;;
25721;SDS011;13578;53.450;15.496;2022-07-30T12:48:59;3.28;;;0.30;;
25721;SDS011;13578;53.450;15.496;2022-07-30T12:52:03;1.45;;;0.22;;
25721;SDS011;13578;53.450;15.496;2022-07-30T12:55:08;4.57;;;0.52;;
25721;SDS011;13578;53.450;15.496;2022-07-30T12:58:11;0.82;;;0.35;;
25721;SDS011;13578;53.450;15.496;2022-07-30T13:01:12;2.65;;;0.40;;
25721;SDS011;13578;53.450;15.496;2022-07-30T13:04:13;4.03;;;0.40;;
25721;SDS011;13578;53.450;15.496;2022-07-30T13:07:13;2.25;;;0.40;;
25721;SDS011;13578;53.450;15.496;2022-07-30T13:10:15;7.20;;;0.57;;
25721;SDS011;13578;53.450;15.496;2022-07-30T13:13:17;2.85;;;0.70;;
25721;SDS011;13578;53.450;15.496;2022-07-30T13:16:19;1.33;;;0.30;;
25721;SDS011;13578;53.450;15.496;2022-07-30T13:19:20;2.10;;;0.35;;
25721;SDS011;13578;53.450;15.496;2022-07-30T13:22:20;2.50;;;0.30;;
25721;SDS011;13578;53.450;15.496;2022-07-30T13:25:24;1.38;;;0.30;;
25721;SDS011;13578;53.450;15.496;2022-07-30T13:28:25;1.17;;;0.30;;
25721;SDS011;13578;53.450;15.496;2022-07-30T13:31:26;1.25;;;0.30;;
25721;SDS011;13578;53.450;15.496;2022-07-30T13:34:27;5.40;;;0.47;;
25721;SDS011;13578;53.450;15.496;2022-07-30T13:37:28;3.58;;;0.68;;
25721;SDS011;13578;53.450;15.496;2022-07-30T13:40:29;4.20;;;0.40;;
25721;SDS011;13578;53.450;15.496;2022-07-30T13:43:32;1.90;;;0.50;;
25721;SDS011;13578;53.450;15.496;2022-07-30T13:46:33;2.45;;;0.47;;
25721;SDS011;13578;53.450;15.496;2022-07-30T13:49:35;2.47;;;0.38;;
25721;SDS011;13578;53.450;15.496;2022-07-30T13:52:38;7.03;;;0.55;;
25721;SDS011;13578;53.450;15.496;2022-07-30T13:55:38;5.18;;;0.47;;
25721;SDS011;13578;53.450;15.496;2022-07-30T13:58:41;1.38;;;0.30;;
25721;SDS011;13578;53.450;15.496;2022-07-30T14:01:42;4.32;;;0.30;;
25721;SDS011;13578;53.450;15.496;2022-07-30T14:04:42;3.22;;;0.52;;
25721;SDS011;13578;53.450;15.496;2022-07-30T14:07:43;5.70;;;0.40;;
25721;SDS011;13578;53.450;15.496;2022-07-30T14:10:44;1.23;;;0.30;;
25721;SDS011;13578;53.450;15.496;2022-07-30T14:13:44;2.40;;;0.40;;
25721;SDS011;13578;53.450;15.496;2022-07-30T14:16:45;3.95;;;0.30;;
25721;SDS011;13578;53.450;15.496;2022-07-30T14:19:47;1.55;;;0.30;;
25721;SDS011;13578;53.450;15.496;2022-07-30T14:22:50;4.22;;;0.30;;
25721;SDS011;13578;53.450;15.496;2022-07-30T14:25:51;2.83;;;0.32;;
25721;SDS011;13578;53.450;15.496;2022-07-30T14:28:51;1.30;;;0.35;;
25721;SDS011;13578;53.450;15.496;2022-07-30T14:31:52;1.33;;;0.25;;
25721;SDS011;13578;53.450;15.496;2022-07-30T14:34:53;4.63;;;0.40;;
25721;SDS011;13578;53.450;15.496;2022-07-30T14:37:54;1.17;;;0.30;;
25721;SDS011;13578;53.450;15.496;2022-07-30T14:40:54;2.75;;;0.30;;
25721;SDS011;13578;53.450;15.496;2022-07-30T14:43:55;3.72;;;0.57;;
25721;SDS011;13578;53.450;15.496;2022-07-30T14:46:56;1.13;;;0.20;;
25721;SDS011;13578;53.450;15.496;2022-07-30T14:49:57;1.75;;;0.20;;
25721;SDS011;13578;53.450;15.496;2022-07-30T14:52:58;3.45;;;0.35;;
25721;SDS011;13578;53.450;15.496;2022-07-30T14:55:58;3.05;;;0.30;;
25721;SDS011;13578;53.450;15.496;2022-07-30T14:58:59;2.30;;;0.20;;
25721;SDS011;13578;53.450;15.496;2022-07-30T15:02:00;1.27;;;0.30;;
25721;SDS011;13578;53.450;15.496;2022-07-30T15:05:01;4.47;;;0.25;;
25721;SDS011;13578;53.450;15.496;2022-07-30T15:08:01;0.93;;;0.25;;
25721;SDS011;13578;53.450;15.496;2022-07-30T15:11:02;1.58;;;0.32;;
25721;SDS011;13578;53.450;15.496;2022-07-30T15:14:04;1.48;;;0.28;;
25721;SDS011;13578;53.450;15.496;2022-07-30T15:17:04;4.85;;;0.35;;
25721;SDS011;13578;53.450;15.496;2022-07-30T15:20:05;0.88;;;0.20;;
25721;SDS011;13578;53.450;15.496;2022-07-30T15:23:10;4.25;;;0.30;;
25721;SDS011;13578;53.450;15.496;2022-07-30T15:26:11;1.33;;;0.38;;
25721;SDS011;13578;53.450;15.496;2022-07-30T15:29:11;0.95;;;0.30;;
25721;SDS011;13578;53.450;15.496;2022-07-30T15:32:12;2.80;;;0.35;;
25721;SDS011;13578;53.450;15.496;2022-07-30T15:35:14;1.42;;;0.30;;
25721;SDS011;13578;53.450;15.496;2022-07-30T15:38:15;3.63;;;0.28;;
25721;SDS011;13578;53.450;15.496;2022-07-30T15:41:15;4.05;;;0.32;;
25721;SDS011;13578;53.450;15.496;2022-07-30T15:44:16;3.25;;;0.32;;
25721;SDS011;13578;53.450;15.496;2022-07-30T15:47:17;0.80;;;0.30;;
25721;SDS011;13578;53.450;15.496;2022-07-30T15:50:17;2.35;;;0.30;;
25721;SDS011;13578;53.450;15.496;2022-07-30T15:53:18;1.05;;;0.28;;
25721;SDS011;13578;53.450;15.496;2022-07-30T15:56:18;2.50;;;0.35;;
25721;SDS011;13578;53.450;15.496;2022-07-30T15:59:20;2.85;;;0.30;;
25721;SDS011;13578;53.450;15.496;2022-07-30T16:02:21;3.88;;;0.55;;
25721;SDS011;13578;53.450;15.496;2022-07-30T16:05:21;2.55;;;0.77;;
25721;SDS011;13578;53.450;15.496;2022-07-30T16:08:22;1.35;;;0.20;;
25721;SDS011;13578;53.450;15.496;2022-07-30T16:11:23;6.03;;;0.50;;
25721;SDS011;13578;53.450;15.496;2022-07-30T16:14:24;1.88;;;0.35;;
25721;SDS011;13578;53.450;15.496;2022-07-30T16:17:26;3.92;;;0.47;;
25721;SDS011;13578;53.450;15.496;2022-07-30T16:20:26;1.15;;;0.25;;
25721;SDS011;13578;53.450;15.496;2022-07-30T16:23:27;1.52;;;0.20;;
25721;SDS011;13578;53.450;15.496;2022-07-30T16:26:28;3.58;;;0.40;;
25721;SDS011;13578;53.450;15.496;2022-07-30T16:29:29;2.55;;;0.55;;
25721;SDS011;13578;53.450;15.496;2022-07-30T16:32:30;4.07;;;0.38;;
25721;SDS011;13578;53.450;15.496;2022-07-30T16:35:31;1.58;;;0.30;;
25721;SDS011;13578;53.450;15.496;2022-07-30T16:38:31;2.63;;;0.40;;
25721;SDS011;13578;53.450;15.496;2022-07-30T16:41:32;4.55;;;0.30;;
25721;SDS011;13578;53.450;15.496;2022-07-30T16:44:32;1.63;;;0.30;;
25721;SDS011;13578;53.450;15.496;2022-07-30T16:47:34;2.15;;;0.40;;
25721;SDS011;13578;53.450;15.496;2022-07-30T16:50:35;2.55;;;0.30;;
25721;SDS011;13578;53.450;15.496;2022-07-30T16:53:35;0.77;;;0.30;;
25721;SDS011;13578;53.450;15.496;2022-07-30T16:56:36;3.97;;;0.45;;
25721;SDS011;13578;53.450;15.496;2022-07-30T16:59:37;2.88;;;0.30;;
25721;SDS011;13578;53.450;15.496;2022-07-30T17:02:38;1.35;;;0.32;;
25721;SDS011;13578;53.450;15.496;2022-07-30T17:05:38;4.78;;;0.40;;
25721;SDS011;13578;53.450;15.496;2022-07-30T17:08:39;5.63;;;0.45;;
25721;SDS011;13578;53.450;15.496;2022-07-30T17:11:40;9.27;;;0.50;;
25721;SDS011;13578;53.450;15.496;2022-07-30T17:14:40;6.53;;;0.32;;
25721;SDS011;13578;53.450;15.496;2022-07-30T17:17:41;3.58;;;0.40;;
25721;SDS011;13578;53.450;15.496;2022-07-30T17:20:42;3.42;;;0.60;;
25721;SDS011;13578;53.450;15.496;2022-07-30T17:23:43;2.42;;;0.25;;
25721;SDS011;13578;53.450;15.496;2022-07-30T17:26:44;3.88;;;0.52;;
25721;SDS011;13578;53.450;15.496;2022-07-30T17:29:45;4.05;;;0.45;;
25721;SDS011;13578;53.450;15.496;2022-07-30T17:32:46;7.70;;;0.50;;
25721;SDS011;13578;53.450;15.496;2022-07-30T17:35:47;4.50;;;0.28;;
25721;SDS011;13578;53.450;15.496;2022-07-30T17:38:47;9.98;;;0.68;;
25721;SDS011;13578;53.450;15.496;2022-07-30T17:41:48;2.75;;;0.40;;
25721;SDS011;13578;53.450;15.496;2022-07-30T17:44:48;1.77;;;0.30;;
25721;SDS011;13578;53.450;15.496;2022-07-30T17:47:49;3.50;;;0.35;;
25721;SDS011;13578;53.450;15.496;2022-07-30T17:50:50;5.07;;;0.70;;
25721;SDS011;13578;53.450;15.496;2022-07-30T17:53:50;2.78;;;0.70;;
25721;SDS011;13578;53.450;15.496;2022-07-30T17:56:51;3.90;;;0.40;;
25721;SDS011;13578;53.450;15.496;2022-07-30T17:59:52;1.75;;;0.30;;
25721;SDS011;13578;53.450;15.496;2022-07-30T18:02:52;8.27;;;0.80;;
25721;SDS011;13578;53.450;15.496;2022-07-30T18:05:53;2.28;;;0.30;;
25721;SDS011;13578;53.450;15.496;2022-07-30T18:08:55;5.70;;;1.10;;
25721;SDS011;13578;53.450;15.496;2022-07-30T18:11:56;4.25;;;0.50;;
25721;SDS011;13578;53.450;15.496;2022-07-30T18:14:57;2.25;;;0.50;;
25721;SDS011;13578;53.450;15.496;2022-07-30T18:17:58;4.43;;;0.40;;
25721;SDS011;13578;53.450;15.496;2022-07-30T18:21:01;4.53;;;0.40;;
25721;SDS011;13578;53.450;15.496;2022-07-30T18:24:02;2.05;;;0.55;;
25721;SDS011;13578;53.450;15.496;2022-07-30T18:27:02;2.15;;;0.47;;
25721;SDS011;13578;53.450;15.496;2022-07-30T18:30:03;2.85;;;0.57;;
25721;SDS011;13578;53.450;15.496;2022-07-30T18:33:04;2.03;;;0.30;;
25721;SDS011;13578;53.450;15.496;2022-07-30T18:36:05;1.50;;;0.40;;
25721;SDS011;13578;53.450;15.496;2022-07-30T18:39:06;1.77;;;0.60;;